Time;durP1;ratioP1;P1;durP2;ratioP2;P2;SDS_P1;SDS_P2;PMS_P1;PMS_P2;Temp;Humidity;BMP_temperature;BMP_pressure;BME280_temperature;BME280_humidity;BME280_pressure;Samples;Min_cycle;Max_cycle;Signal;HPM_P1;HPM_P2
2021/05/20 00:02:12;;;;;;;7.50;6.73;;;12.50;1.00;;;;;;5089678;28;20182;-54
2021/05/20 00:04:37;;;;;;;8.27;6.97;;;12.50;1.00;;;;;;5109107;28;20464;-53
2021/05/20 00:07:03;;;;;;;7.67;6.97;;;12.60;1.00;;;;;;5109998;28;20439;-54
2021/05/20 00:09:29;;;;;;;7.63;6.93;;;12.60;1.00;;;;;;5103943;28;20228;-53
2021/05/20 00:11:55;;;;;;;6.73;6.03;;;12.70;1.00;;;;;;5107225;28;20859;-53
2021/05/20 00:14:21;;;;;;;9.00;7.03;;;12.60;1.00;;;;;;5112257;27;20170;-55
2021/05/20 00:16:47;;;;;;;7.50;6.77;;;12.60;1.00;;;;;;5107975;28;20865;-55
2021/05/20 00:19:12;;;;;;;8.40;6.90;;;12.50;1.00;;;;;;5113340;28;20443;-53
2021/05/20 00:21:38;;;;;;;7.20;6.50;;;12.60;1.00;;;;;;5112978;28;20217;-52
2021/05/20 00:24:04;;;;;;;7.90;7.10;;;12.50;1.00;;;;;;5113351;28;20186;-55
2021/05/20 00:26:32;;;;;;;7.20;6.60;;;12.50;1.00;;;;;;5112361;28;20707;-53
2021/05/20 00:28:57;;;;;;;7.33;6.27;;;12.50;1.00;;;;;;5112899;28;20503;-53
2021/05/20 00:31:23;;;;;;;6.60;6.00;;;12.50;1.00;;;;;;5100142;28;20474;-52
2021/05/20 00:33:48;;;;;;;7.23;6.53;;;12.50;1.00;;;;;;5111839;28;20632;-52
2021/05/20 00:36:14;;;;;;;6.97;6.33;;;12.50;1.00;;;;;;5109387;27;20221;-54
2021/05/20 00:38:39;;;;;;;7.30;6.60;;;12.40;1.00;;;;;;5111594;28;20646;-54
2021/05/20 00:41:05;;;;;;;6.13;5.50;;;12.40;1.00;;;;;;5101458;28;20216;-53
2021/05/20 00:43:30;;;;;;;8.73;6.57;;;12.30;1.00;;;;;;5100842;28;20280;-55
2021/05/20 00:45:56;;;;;;;6.83;6.23;;;12.20;1.00;;;;;;5112410;28;20319;-54
2021/05/20 00:48:22;;;;;;;7.10;6.50;;;12.10;1.00;;;;;;5096954;28;20185;-53
2021/05/20 00:50:48;;;;;;;7.03;6.43;;;12.10;1.00;;;;;;5110654;28;20214;-55
2021/05/20 00:53:14;;;;;;;7.03;6.33;;;12.10;1.00;;;;;;5112711;28;20184;-51
2021/05/20 00:55:40;;;;;;;7.00;6.40;;;12.10;1.00;;;;;;5097168;28;20452;-56
2021/05/20 00:58:07;;;;;;;7.00;6.40;;;11.90;1.00;;;;;;5111421;27;20584;-52
2021/05/20 01:00:33;;;;;;;7.50;6.77;;;11.90;1.00;;;;;;5108831;28;20451;-54
2021/05/20 01:03:00;;;;;;;8.83;7.43;;;11.80;1.00;;;;;;5105703;28;20847;-55
2021/05/20 01:05:25;;;;;;;6.90;6.30;;;11.70;1.00;;;;;;5105750;27;20437;-51
2021/05/20 01:07:52;;;;;;;6.63;6.00;;;11.80;1.00;;;;;;5100074;28;20522;-55
2021/05/20 01:10:18;;;;;;;7.17;6.47;;;11.80;1.00;;;;;;5079031;28;20246;-52
2021/05/20 01:12:43;;;;;;;6.87;6.27;;;11.70;1.00;;;;;;5112839;28;20432;-53
2021/05/20 01:15:29;;;;;;;8.90;6.43;;;11.70;1.00;;;;;;5109509;28;20210;-53
2021/05/20 01:17:57;;;;;;;6.90;6.20;;;11.90;1.00;;;;;;5079749;28;20536;-52
2021/05/20 01:20:24;;;;;;;8.93;6.37;;;11.90;1.00;;;;;;5095189;28;20454;-52
2021/05/20 01:22:50;;;;;;;5.67;5.17;;;12.00;1.00;;;;;;5108066;28;20804;-53
2021/05/20 01:25:16;;;;;;;6.00;5.53;;;11.90;1.00;;;;;;5100115;28;20456;-56
2021/05/20 01:27:43;;;;;;;6.37;5.87;;;12.10;1.00;;;;;;5098482;27;20192;-52
2021/05/20 01:30:10;;;;;;;6.73;5.63;;;12.10;1.00;;;;;;5111598;28;20197;-52
2021/05/20 01:32:36;;;;;;;8.00;5.93;;;12.00;1.00;;;;;;5092205;28;20930;-52
2021/05/20 01:35:03;;;;;;;7.40;6.37;;;12.00;1.00;;;;;;5083082;28;20438;-54
2021/05/20 01:37:29;;;;;;;6.27;5.77;;;12.00;1.00;;;;;;5111766;28;20470;-54
2021/05/20 01:39:54;;;;;;;5.80;5.23;;;12.00;1.00;;;;;;5111965;28;20476;-53
2021/05/20 01:42:20;;;;;;;7.00;6.40;;;11.90;1.00;;;;;;5111732;28;20190;-54
2021/05/20 01:44:46;;;;;;;5.80;5.30;;;11.90;1.00;;;;;;5111379;28;20185;-53
2021/05/20 01:47:11;;;;;;;6.90;5.47;;;11.90;1.00;;;;;;5111942;28;20176;-54
2021/05/20 01:49:37;;;;;;;6.13;5.60;;;11.90;1.00;;;;;;5088129;28;20244;-55
2021/05/20 01:52:02;;;;;;;6.97;6.27;;;12.10;1.00;;;;;;5093046;28;20578;-52
2021/05/20 01:54:28;;;;;;;6.03;5.43;;;12.10;1.00;;;;;;5110537;28;20189;-53
2021/05/20 01:56:53;;;;;;;6.73;5.50;;;12.00;1.00;;;;;;5087763;28;20240;-54
2021/05/20 01:59:19;;;;;;;6.50;5.73;;;12.10;1.00;;;;;;5098694;28;20686;-53
2021/05/20 02:01:45;;;;;;;6.07;5.57;;;12.00;1.00;;;;;;5107104;28;20210;-53
2021/05/20 02:04:10;;;;;;;6.70;6.10;;;12.10;1.00;;;;;;5110707;28;20188;-52
2021/05/20 02:06:36;;;;;;;5.60;5.10;;;12.10;1.00;;;;;;5093330;28;20179;-53
2021/05/20 02:09:05;;;;;;;8.63;5.83;;;12.00;1.00;;;;;;5110493;28;20206;-52
2021/05/20 02:11:30;;;;;;;5.90;5.40;;;12.00;1.00;;;;;;5110902;28;20180;-52
2021/05/20 02:13:56;;;;;;;6.30;5.23;;;12.00;1.00;;;;;;5109503;27;20524;-52
2021/05/20 02:16:21;;;;;;;6.00;5.40;;;12.10;1.00;;;;;;5109662;27;20191;-54
2021/05/20 02:18:47;;;;;;;5.97;5.17;;;12.00;1.00;;;;;;5101689;28;20709;-56
2021/05/20 02:21:13;;;;;;;5.60;5.10;;;11.90;1.00;;;;;;5108720;28;20213;-54
2021/05/20 02:23:38;;;;;;;8.83;5.47;;;11.90;1.00;;;;;;5110291;28;20202;-54
2021/05/20 02:26:04;;;;;;;5.90;5.20;;;12.00;1.00;;;;;;5105005;28;20262;-54
2021/05/20 02:28:29;;;;;;;6.10;5.53;;;12.10;1.00;;;;;;5102744;28;20195;-53
2021/05/20 02:30:55;;;;;;;7.00;4.97;;;12.10;1.00;;;;;;5104212;28;20205;-53
2021/05/20 02:33:20;;;;;;;5.47;4.97;;;12.20;1.00;;;;;;5106681;28;20236;-55
2021/05/20 02:35:46;;;;;;;6.83;5.13;;;12.20;1.00;;;;;;5111001;27;20225;-53
2021/05/20 02:38:11;;;;;;;4.70;4.30;;;12.20;1.00;;;;;;5106147;28;20190;-55
2021/05/20 02:40:37;;;;;;;4.50;4.10;;;12.20;1.00;;;;;;5110600;28;20298;-51
2021/05/20 02:43:04;;;;;;;6.10;4.80;;;12.20;1.00;;;;;;5106933;28;20216;-55
2021/05/20 02:45:30;;;;;;;5.53;5.03;;;12.20;1.00;;;;;;5109347;28;20313;-51
2021/05/20 02:47:56;;;;;;;5.10;4.30;;;12.20;1.00;;;;;;5095750;28;20444;-55
2021/05/20 02:50:23;;;;;;;5.13;4.63;;;14.30;1.00;;;;;;5110536;28;20806;-51
2021/05/20 02:52:49;;;;;;;5.00;4.50;;;12.20;1.00;;;;;;5109147;28;20953;-56
2021/05/20 02:55:17;;;;;;;5.43;4.63;;;12.20;1.00;;;;;;5109988;28;20438;-52
2021/05/20 02:57:48;;;;;;;8.60;4.43;;;12.20;1.00;;;;;;5104721;28;20236;-52
2021/05/20 03:00:15;;;;;;;5.33;4.80;;;12.30;1.00;;;;;;5107858;28;20446;-52
2021/05/20 03:02:41;;;;;;;5.00;4.50;;;12.30;1.00;;;;;;5110733;28;21029;-53
2021/05/20 03:05:08;;;;;;;5.87;5.27;;;12.40;1.00;;;;;;5104292;28;20542;-57
2021/05/20 03:07:34;;;;;;;4.90;4.23;;;12.30;1.00;;;;;;5109947;28;20212;-52
2021/05/20 03:10:01;;;;;;;5.47;4.97;;;12.20;1.00;;;;;;5098176;28;20485;-53
2021/05/20 03:12:26;;;;;;;4.97;4.57;;;12.10;1.00;;;;;;5109773;28;20438;-53
2021/05/20 03:14:52;;;;;;;5.33;4.37;;;12.20;1.00;;;;;;5101886;28;20497;-52
2021/05/20 03:17:17;;;;;;;5.87;5.20;;;12.20;1.00;;;;;;5109075;28;20233;-52
2021/05/20 03:19:43;;;;;;;4.53;4.13;;;12.20;1.00;;;;;;5091467;28;20184;-53
2021/05/20 03:22:08;;;;;;;5.00;4.60;;;12.20;1.00;;;;;;5104309;28;20212;-53
2021/05/20 03:24:35;;;;;;;7.10;4.90;;;12.40;1.00;;;;;;5109355;28;20703;-54
2021/05/20 03:27:01;;;;;;;6.83;4.40;;;12.40;1.00;;;;;;5108716;28;20192;-52
2021/05/20 03:29:26;;;;;;;4.93;4.40;;;12.40;1.00;;;;;;5108261;28;20806;-52
2021/05/20 03:31:52;;;;;;;5.27;4.40;;;12.50;1.00;;;;;;5092169;28;20445;-53
2021/05/20 03:34:18;;;;;;;4.70;4.30;;;12.50;1.00;;;;;;5103938;28;20584;-53
2021/05/20 03:36:43;;;;;;;5.20;4.70;;;12.60;1.00;;;;;;5108830;28;20217;-52
2021/05/20 03:39:09;;;;;;;4.93;4.43;;;12.70;1.00;;;;;;5109373;28;20179;-52
2021/05/20 03:41:34;;;;;;;5.03;4.40;;;12.70;1.00;;;;;;5109591;28;20209;-52
2021/05/20 03:44:00;;;;;;;4.87;4.47;;;12.80;1.00;;;;;;5110276;28;20208;-54
2021/05/20 03:46:25;;;;;;;4.63;4.23;;;12.80;1.00;;;;;;5102608;28;20186;-54
2021/05/20 03:48:51;;;;;;;5.30;4.83;;;12.90;1.00;;;;;;5106658;28;20632;-54
2021/05/20 03:51:17;;;;;;;6.07;4.60;;;13.00;1.00;;;;;;5112724;28;20551;-52
2021/05/20 03:53:42;;;;;;;4.60;4.20;;;13.00;1.00;;;;;;5113002;28;20269;-52
2021/05/20 03:56:08;;;;;;;4.73;4.20;;;13.00;1.00;;;;;;5106288;28;20662;-53
2021/05/20 03:58:33;;;;;;;6.37;5.50;;;13.00;1.00;;;;;;5111315;28;20190;-54
2021/05/20 04:00:59;;;;;;;4.90;4.50;;;13.00;1.00;;;;;;5113131;28;20196;-53
2021/05/20 04:03:28;;;;;;;5.70;3.97;;;13.00;1.00;;;;;;5113696;28;20568;-54
2021/05/20 04:05:58;;;;;;;4.73;4.23;;;12.90;1.00;;;;;;5113597;28;20187;-53
2021/05/20 04:08:24;;;;;;;5.63;4.77;;;13.00;1.00;;;;;;5113077;28;20516;-53
2021/05/20 04:10:51;;;;;;;6.20;5.60;;;13.00;1.00;;;;;;5113421;28;20467;-53
2021/05/20 04:13:40;;;;;;;5.40;4.90;;;12.90;1.00;;;;;;5113532;28;20766;-53
2021/05/20 04:16:08;;;;;;;4.90;4.50;;;12.90;1.00;;;;;;5110147;28;20435;-53
2021/05/20 04:18:34;;;;;;;4.83;4.43;;;12.90;1.00;;;;;;5103333;28;20443;-55
2021/05/20 04:21:00;;;;;;;7.90;5.73;;;12.90;1.00;;;;;;5113365;28;20436;-53
2021/05/20 04:23:26;;;;;;;4.50;4.10;;;12.80;1.00;;;;;;5113026;28;20867;-51
2021/05/20 04:25:52;;;;;;;4.90;4.40;;;12.90;1.00;;;;;;5112876;28;20441;-52
2021/05/20 04:28:19;;;;;;;5.53;4.93;;;13.00;1.00;;;;;;5101494;28;20412;-53
2021/05/20 04:30:45;;;;;;;4.90;4.40;;;13.00;1.00;;;;;;5104691;28;20490;-53
2021/05/20 04:33:11;;;;;;;4.40;4.00;;;13.10;1.00;;;;;;5113095;28;20398;-54
2021/05/20 04:35:37;;;;;;;5.13;3.80;;;13.10;1.00;;;;;;5112614;28;20508;-53
2021/05/20 04:38:05;;;;;;;4.90;4.40;;;13.20;1.00;;;;;;5111000;28;20770;-54
2021/05/20 04:40:31;;;;;;;5.80;4.30;;;13.20;1.00;;;;;;5110634;28;20538;-52
2021/05/20 04:42:57;;;;;;;5.33;4.13;;;13.30;1.00;;;;;;5110015;28;20448;-52
2021/05/20 04:45:23;;;;;;;5.43;4.60;;;13.40;1.00;;;;;;5113092;28;20439;-52
2021/05/20 04:47:49;;;;;;;7.83;4.50;;;13.30;1.00;;;;;;5106474;28;20192;-52
2021/05/20 04:50:16;;;;;;;4.70;4.30;;;13.40;1.00;;;;;;5109596;28;20213;-53
2021/05/20 04:52:43;;;;;;;4.70;4.00;;;13.20;1.00;;;;;;5111526;28;20494;-53
2021/05/20 04:55:09;;;;;;;6.37;5.33;;;13.20;1.00;;;;;;5112213;28;20446;-53
2021/05/20 04:57:35;;;;;;;5.73;5.23;;;13.30;1.00;;;;;;5092182;28;20504;-53
2021/05/20 05:00:02;;;;;;;5.83;5.33;;;13.50;1.00;;;;;;5104266;28;20415;-53
2021/05/20 05:02:28;;;;;;;5.77;4.60;;;13.30;1.00;;;;;;5096031;28;20228;-53
2021/05/20 05:04:54;;;;;;;5.00;4.50;;;13.40;1.00;;;;;;5103531;28;20665;-53
2021/05/20 05:07:19;;;;;;;5.00;4.50;;;13.50;1.00;;;;;;5103962;28;20188;-53
2021/05/20 05:09:45;;;;;;;5.70;4.17;;;13.40;1.00;;;;;;5109335;28;20216;-54
2021/05/20 05:12:10;;;;;;;5.40;4.90;;;13.60;1.00;;;;;;5104186;28;20186;-56
2021/05/20 05:14:36;;;;;;;5.80;5.27;;;13.60;1.00;;;;;;5111810;27;21666;-52
2021/05/20 05:17:02;;;;;;;5.63;5.13;;;13.50;1.00;;;;;;5100744;28;20185;-53
2021/05/20 05:19:27;;;;;;;5.40;4.90;;;13.50;1.00;;;;;;5111279;28;20509;-54
2021/05/20 05:21:53;;;;;;;6.20;5.30;;;13.50;1.00;;;;;;5093046;28;20877;-52
2021/05/20 05:24:19;;;;;;;6.53;4.87;;;13.60;1.00;;;;;;5111382;28;20293;-52
2021/05/20 05:26:44;;;;;;;5.57;5.17;;;13.60;1.00;;;;;;5112380;28;20685;-54
2021/05/20 05:29:10;;;;;;;5.20;4.63;;;13.60;1.00;;;;;;5093345;28;20189;-55
2021/05/20 05:31:36;;;;;;;5.17;4.67;;;13.60;1.00;;;;;;5096835;28;20180;-52
2021/05/20 05:34:03;;;;;;;5.23;4.43;;;13.60;1.00;;;;;;5112159;28;20280;-56
2021/05/20 05:36:29;;;;;;;7.70;5.27;;;13.70;1.00;;;;;;5108910;28;20512;-53
2021/05/20 05:38:54;;;;;;;4.90;4.40;;;13.70;1.00;;;;;;5106371;28;21049;-53
2021/05/20 05:41:20;;;;;;;6.30;5.43;;;13.70;1.00;;;;;;5091644;28;20428;-53
2021/05/20 05:43:45;;;;;;;6.10;5.10;;;13.60;1.00;;;;;;5111088;28;20311;-54
2021/05/20 05:46:11;;;;;;;5.10;4.60;;;13.80;1.00;;;;;;5089255;28;20281;-53
2021/05/20 05:48:37;;;;;;;5.20;4.20;;;13.80;1.00;;;;;;5109714;28;20197;-53
2021/05/20 05:51:06;;;;;;;4.30;3.90;;;13.90;1.00;;;;;;5108466;28;20803;-53
2021/05/20 05:53:31;;;;;;;6.00;3.90;;;14.00;1.00;;;;;;5081511;28;20189;-55
2021/05/20 05:55:57;;;;;;;4.33;3.93;;;14.10;1.00;;;;;;5111194;28;20489;-52
2021/05/20 05:58:23;;;;;;;5.60;4.47;;;14.20;1.00;;;;;;5111608;28;20183;-52
2021/05/20 06:00:49;;;;;;;4.33;3.90;;;15.90;1.00;;;;;;5110059;28;20526;-52
2021/05/20 06:03:15;;;;;;;4.03;3.63;;;14.30;1.00;;;;;;5111043;28;20853;-56
2021/05/20 06:05:41;;;;;;;6.13;2.97;;;14.40;1.00;;;;;;5110681;28;20198;-54
2021/05/20 06:08:06;;;;;;;3.80;2.83;;;14.60;1.00;;;;;;5104752;28;20806;-55
2021/05/20 06:10:32;;;;;;;3.90;2.43;;;14.90;1.00;;;;;;5102087;28;20464;-55
2021/05/20 06:12:59;;;;;;;3.17;2.67;;;14.80;1.00;;;;;;5111236;28;20178;-53
2021/05/20 06:15:25;;;;;;;2.33;2.13;;;14.70;1.00;;;;;;5110951;28;20198;-52
2021/05/20 06:17:50;;;;;;;2.17;2.07;;;14.80;1.00;;;;;;5110802;28;20463;-55
2021/05/20 06:20:16;;;;;;;2.73;2.53;;;15.10;1.00;;;;;;5090082;28;20174;-53
2021/05/20 06:22:42;;;;;;;2.60;2.40;;;15.20;1.00;;;;;;5085886;28;20547;-53
2021/05/20 06:25:08;;;;;;;2.73;2.53;;;15.20;1.00;;;;;;5111016;28;20425;-53
2021/05/20 06:27:33;;;;;;;6.63;2.60;;;15.30;1.00;;;;;;5087644;28;20648;-52
2021/05/20 06:29:59;;;;;;;3.13;2.00;;;15.50;1.00;;;;;;5109637;28;20486;-56
2021/05/20 06:32:24;;;;;;;3.10;2.90;;;15.60;1.00;;;;;;5110924;28;20178;-53
2021/05/20 06:34:51;;;;;;;7.30;2.17;;;15.50;1.00;;;;;;5107414;28;20182;-52
2021/05/20 06:37:16;;;;;;;2.00;1.87;;;15.40;1.00;;;;;;5090858;28;20596;-54
2021/05/20 06:39:45;;;;;;;2.33;2.10;;;15.50;1.00;;;;;;5100988;28;20562;-53
2021/05/20 06:42:11;;;;;;;4.63;3.03;;;15.30;1.00;;;;;;5109385;28;20182;-52
2021/05/20 06:44:37;;;;;;;2.87;2.30;;;15.20;1.00;;;;;;5084202;28;20530;-55
2021/05/20 06:47:04;;;;;;;2.93;2.30;;;14.90;1.00;;;;;;5108289;28;20462;-52
2021/05/20 06:49:30;;;;;;;5.10;2.20;;;14.90;1.00;;;;;;5092995;28;20467;-53
2021/05/20 06:51:56;;;;;;;3.40;2.20;;;14.70;1.00;;;;;;5103845;28;20959;-54
2021/05/20 06:54:21;;;;;;;2.30;2.10;;;14.60;1.00;;;;;;5094085;28;20429;-54
2021/05/20 06:56:49;;;;;;;3.33;2.30;;;14.70;1.00;;;;;;5110455;28;20530;-53
2021/05/20 07:01:59;;;;;;;3.93;2.67;;;15.00;1.00;;;;;;5103400;28;20461;-55
2021/05/20 07:04:24;;;;;;;2.03;1.83;;;15.20;1.00;;;;;;5090294;28;20896;-53
2021/05/20 07:06:50;;;;;;;2.90;2.13;;;15.40;1.00;;;;;;5099096;28;20186;-52
2021/05/20 07:09:16;;;;;;;4.57;2.57;;;15.40;1.00;;;;;;5099851;28;20202;-54
2021/05/20 07:11:41;;;;;;;4.00;2.70;;;15.60;1.00;;;;;;5090072;28;20529;-54
2021/05/20 07:14:07;;;;;;;2.60;2.40;;;15.60;1.00;;;;;;5089980;28;20190;-53
2021/05/20 07:16:33;;;;;;;5.73;2.90;;;15.70;1.00;;;;;;5090068;28;20837;-53
2021/05/20 07:18:59;;;;;;;5.43;2.93;;;15.70;1.00;;;;;;5095925;28;20186;-54
2021/05/20 07:21:24;;;;;;;5.17;3.57;;;15.70;1.00;;;;;;5110272;28;20268;-53
2021/05/20 07:23:50;;;;;;;4.47;3.07;;;15.70;1.00;;;;;;5110418;28;20190;-55
2021/05/20 07:26:16;;;;;;;2.83;2.63;;;16.00;1.00;;;;;;5101913;28;20197;-54
2021/05/20 07:28:41;;;;;;;2.97;2.47;;;16.40;1.00;;;;;;5108368;28;20448;-53
2021/05/20 07:31:07;;;;;;;3.83;2.63;;;16.50;1.00;;;;;;5110988;28;20267;-54
2021/05/20 07:33:33;;;;;;;3.37;2.47;;;16.60;1.00;;;;;;5105856;28;20540;-53
2021/05/20 07:35:59;;;;;;;3.03;2.73;;;16.60;1.00;;;;;;5108239;28;20628;-52
2021/05/20 07:38:25;;;;;;;4.50;2.50;;;16.50;1.00;;;;;;5099301;28;20436;-52
2021/05/20 07:40:50;;;;;;;3.10;2.80;;;16.40;1.00;;;;;;5114259;28;20193;-53
2021/05/20 07:43:16;;;;;;;4.10;3.50;;;16.60;1.00;;;;;;5113764;28;20293;-54
2021/05/20 07:45:42;;;;;;;2.60;2.40;;;16.50;1.00;;;;;;5087394;28;20224;-53
2021/05/20 07:48:07;;;;;;;4.20;2.43;;;16.70;1.00;;;;;;5100262;28;20517;-52
2021/05/20 07:50:33;;;;;;;2.70;2.50;;;16.70;1.00;;;;;;5104571;28;20228;-53
2021/05/20 07:52:58;;;;;;;3.57;2.60;;;16.70;1.00;;;;;;5113720;28;20182;-52
2021/05/20 07:55:24;;;;;;;3.00;2.60;;;16.70;1.00;;;;;;5113997;28;20715;-54
2021/05/20 07:57:53;;;;;;;2.93;2.10;;;16.40;1.00;;;;;;5112667;28;20654;-54
2021/05/20 08:00:19;;;;;;;8.60;2.17;;;16.30;1.00;;;;;;5105938;28;20703;-55
2021/05/20 08:05:18;;;;;;;4.00;3.60;;;16.40;1.00;;;;;;5094377;28;20826;-56
2021/05/20 08:12:44;;;;;;;3.87;3.57;;;16.80;1.00;;;;;;5111807;28;20672;-53
2021/05/20 08:15:11;;;;;;;4.77;2.73;;;18.30;1.00;;;;;;5113484;28;20580;-53
2021/05/20 08:17:37;;;;;;;3.17;2.87;;;17.10;1.00;;;;;;5107119;28;20478;-53
2021/05/20 08:20:04;;;;;;;2.97;2.70;;;17.50;1.00;;;;;;5112794;28;20922;-53
2021/05/20 08:22:30;;;;;;;3.23;2.93;;;17.60;1.00;;;;;;5113225;28;20193;-53
2021/05/20 08:24:57;;;;;;;4.00;3.70;;;17.20;1.00;;;;;;5101947;28;20449;-54
2021/05/20 08:27:22;;;;;;;5.27;4.10;;;16.80;1.00;;;;;;5083229;28;20182;-55
2021/05/20 08:29:48;;;;;;;4.00;3.60;;;16.40;1.00;;;;;;5112508;28;20833;-54
2021/05/20 08:32:14;;;;;;;5.13;3.50;;;16.40;1.00;;;;;;5100685;28;20216;-52
2021/05/20 08:34:40;;;;;;;4.70;4.20;;;16.20;1.00;;;;;;5094968;28;20205;-54
2021/05/20 08:37:05;;;;;;;5.17;4.27;;;16.30;1.00;;;;;;5111430;28;20573;-52
2021/05/20 08:39:31;;;;;;;4.20;3.80;;;16.70;1.00;;;;;;5112804;28;20809;-56
2021/05/20 08:41:56;;;;;;;5.23;4.20;;;17.00;1.00;;;;;;5112841;28;20178;-56
2021/05/20 08:44:27;;;;;;;4.63;4.23;;;17.30;1.00;;;;;;5110618;28;20181;-56
2021/05/20 08:46:56;;;;;;;3.90;3.50;;;17.70;1.00;;;;;;5082816;28;20194;-54
2021/05/20 08:49:22;;;;;;;3.40;2.67;;;17.70;1.00;;;;;;5112441;28;20459;-53
2021/05/20 08:51:48;;;;;;;2.97;2.40;;;17.80;1.00;;;;;;5099408;28;20432;-52
2021/05/20 08:54:14;;;;;;;3.10;2.60;;;18.00;1.00;;;;;;5110256;28;20623;-53
2021/05/20 08:56:47;;;;;;;3.60;3.40;;;18.00;1.00;;;;;;5093476;28;20178;-53
2021/05/20 08:59:13;;;;;;;3.00;2.77;;;17.30;1.00;;;;;;5100421;28;20424;-54
2021/05/20 09:01:43;;;;;;;3.23;3.00;;;17.00;1.00;;;;;;5112151;28;20457;-53
2021/05/20 09:04:10;;;;;;;2.77;2.57;;;17.00;1.00;;;;;;5112111;28;20454;-54
2021/05/20 09:06:40;;;;;;;4.10;3.30;;;17.10;1.00;;;;;;5109136;28;20426;-54
2021/05/20 09:09:10;;;;;;;3.73;3.43;;;17.10;1.00;;;;;;5101636;28;20460;-53
2021/05/20 09:11:36;;;;;;;4.03;2.50;;;17.00;1.00;;;;;;5107270;28;20436;-55
2021/05/20 09:14:05;;;;;;;3.47;3.17;;;17.10;1.00;;;;;;5112026;28;20444;-51
2021/05/20 09:16:35;;;;;;;3.70;3.40;;;17.10;1.00;;;;;;5110964;28;20665;-54
2021/05/20 09:19:01;;;;;;;4.10;3.80;;;17.20;1.00;;;;;;5108029;28;20451;-53
2021/05/20 09:21:27;;;;;;;3.50;3.20;;;17.10;1.00;;;;;;5112097;28;21088;-54
2021/05/20 09:23:53;;;;;;;4.00;3.70;;;17.30;1.00;;;;;;5111207;28;20917;-53
2021/05/20 09:26:33;;;;;;;3.87;3.40;;;17.70;1.00;;;;;;5098051;28;20528;-53
2021/05/20 09:29:08;;;;;;;3.53;3.23;;;17.90;1.00;;;;;;5109918;28;20462;-54
2021/05/20 09:31:39;;;;;;;3.73;3.43;;;17.90;1.00;;;;;;5107493;28;20472;-54
2021/05/20 09:34:13;;;;;;;3.53;3.23;;;17.70;1.00;;;;;;5074420;28;20459;-54
2021/05/20 09:36:47;;;;;;;4.93;4.13;;;17.70;1.00;;;;;;5092819;28;20460;-53
2021/05/20 09:39:14;;;;;;;4.67;3.80;;;17.40;1.00;;;;;;5111696;28;20443;-53
2021/05/20 09:41:40;;;;;;;5.80;3.73;;;17.10;1.00;;;;;;5092593;28;20448;-54
2021/05/20 09:44:27;;;;;;;5.13;3.53;;;17.00;1.00;;;;;;5105305;28;20798;-53
2021/05/20 09:46:52;;;;;;;5.30;4.80;;;16.70;1.00;;;;;;5079373;28;20242;-54
2021/05/20 09:49:18;;;;;;;4.57;4.03;;;16.80;1.00;;;;;;5110990;28;20454;-51
2021/05/20 09:51:43;;;;;;;5.27;4.43;;;18.10;1.00;;;;;;5092395;28;20554;-54
2021/05/20 09:54:09;;;;;;;5.90;4.70;;;17.30;1.00;;;;;;5110712;28;20199;-52
2021/05/20 09:56:38;;;;;;;4.60;4.17;;;17.70;1.00;;;;;;5109479;28;20683;-56
2021/05/20 09:59:04;;;;;;;5.93;5.00;;;18.00;1.00;;;;;;5111665;28;20178;-54
2021/05/20 10:01:30;;;;;;;5.40;4.63;;;17.90;1.00;;;;;;5090802;28;20447;-52
2021/05/20 10:03:56;;;;;;;4.30;3.90;;;17.80;1.00;;;;;;5102852;28;20553;-52
2021/05/20 10:06:42;;;;;;;4.77;4.47;;;18.00;1.00;;;;;;5099693;28;20195;-54
2021/05/20 10:09:12;;;;;;;4.90;4.47;;;17.60;1.00;;;;;;5104204;28;20977;-54
2021/05/20 10:11:39;;;;;;;4.63;4.30;;;17.40;1.00;;;;;;5110223;28;20413;-53
2021/05/20 10:14:06;;;;;;;5.17;4.00;;;17.30;1.00;;;;;;5096689;28;20956;-54
2021/05/20 10:16:33;;;;;;;4.20;3.90;;;17.40;1.00;;;;;;5107506;28;20926;-53
2021/05/20 10:18:59;;;;;;;4.43;4.13;;;17.30;1.00;;;;;;5107141;28;20415;-51
2021/05/20 10:21:26;;;;;;;3.97;3.67;;;17.20;1.00;;;;;;5081961;28;20432;-52
2021/05/20 10:23:52;;;;;;;5.60;4.70;;;17.50;1.00;;;;;;5110790;28;20398;-54
2021/05/20 10:26:18;;;;;;;5.33;4.83;;;17.60;1.00;;;;;;5107411;28;20432;-55
2021/05/20 10:28:44;;;;;;;5.53;5.03;;;17.50;1.00;;;;;;5091989;28;20894;-55
2021/05/20 10:31:10;;;;;;;4.43;4.00;;;17.40;1.00;;;;;;5091088;28;20519;-52
2021/05/20 10:33:36;;;;;;;4.33;3.93;;;17.60;1.00;;;;;;5090558;28;20433;-54
2021/05/20 10:36:02;;;;;;;4.13;3.83;;;17.90;1.00;;;;;;5108606;28;20975;-54
2021/05/20 10:38:29;;;;;;;6.73;4.30;;;18.10;1.00;;;;;;5090958;28;20181;-53
2021/05/20 10:41:22;;;;;;;4.53;4.23;;;18.10;1.00;;;;;;5110735;28;20432;-55
2021/05/20 10:44:08;;;;;;;4.17;3.77;;;17.90;1.00;;;;;;5103562;28;20455;-53
2021/05/20 10:47:06;;;;;;;4.00;3.60;;;17.50;1.00;;;;;;5083120;28;20455;-55
2021/05/20 10:49:49;;;;;;;3.90;3.60;;;17.60;1.00;;;;;;5098435;28;20493;-52
2021/05/20 10:52:34;;;;;;;4.50;4.10;;;17.50;1.00;;;;;;5098574;28;20460;-55
2021/05/20 10:55:01;;;;;;;4.50;4.20;;;17.40;1.00;;;;;;5083298;28;20497;-54
2021/05/20 10:57:48;;;;;;;5.20;4.30;;;17.30;1.00;;;;;;5100007;28;20441;-52
2021/05/20 11:00:42;;;;;;;5.20;4.80;;;17.20;1.00;;;;;;5082035;28;20443;-55
2021/05/20 11:03:09;;;;;;;4.50;4.10;;;17.30;1.00;;;;;;5108039;28;20986;-52
2021/05/20 11:05:40;;;;;;;5.33;3.83;;;17.70;1.00;;;;;;5096469;28;20443;-57
2021/05/20 11:08:09;;;;;;;3.10;2.90;;;17.80;1.00;;;;;;5092496;28;20472;-52
2021/05/20 11:10:38;;;;;;;2.40;2.20;;;17.80;1.00;;;;;;5080990;28;20574;-53
2021/05/20 11:13:05;;;;;;;3.30;2.20;;;18.00;1.00;;;;;;5105012;28;20443;-55
2021/05/20 11:15:31;;;;;;;3.30;2.83;;;18.20;1.00;;;;;;5102610;28;20444;-53
2021/05/20 11:18:33;;;;;;;4.07;3.00;;;18.70;1.00;;;;;;5110644;28;20485;-52
2021/05/20 11:20:59;;;;;;;2.97;2.33;;;18.80;1.00;;;;;;5088342;28;20447;-54
2021/05/20 11:23:26;;;;;;;3.30;2.50;;;18.40;1.00;;;;;;5109327;28;20434;-52
2021/05/20 11:26:05;;;;;;;1.87;1.77;;;18.10;1.00;;;;;;5090672;28;20269;-54
2021/05/20 11:28:41;;;;;;;2.50;2.30;;;17.90;1.00;;;;;;5098327;28;20849;-52
2021/05/20 11:31:06;;;;;;;2.73;2.53;;;17.80;1.00;;;;;;5104630;28;20516;-55
2021/05/20 11:36:18;;;;;;;3.03;2.73;;;18.30;1.00;;;;;;5109525;28;20358;-55
2021/05/20 11:39:00;;;;;;;3.20;3.00;;;17.80;1.00;;;;;;5108354;28;20417;-53
2021/05/20 11:41:27;;;;;;;3.30;2.80;;;18.10;1.00;;;;;;5097313;28;20431;-54
2021/05/20 11:44:08;;;;;;;3.20;3.00;;;18.10;1.00;;;;;;5108774;28;20780;-54
2021/05/20 11:46:34;;;;;;;4.70;4.30;;;18.60;1.00;;;;;;5105410;28;20435;-53
2021/05/20 11:49:05;;;;;;;4.80;4.20;;;19.00;1.00;;;;;;5081686;28;20490;-57
2021/05/20 11:51:42;;;;;;;4.97;4.57;;;18.60;1.00;;;;;;5108093;28;20443;-52
2021/05/20 11:54:14;;;;;;;5.87;5.30;;;18.20;1.00;;;;;;5105034;28;20403;-54
2021/05/20 11:56:43;;;;;;;5.63;5.13;;;17.70;1.00;;;;;;5109690;28;20439;-53
2021/05/20 11:59:09;;;;;;;5.73;5.33;;;17.90;1.00;;;;;;5104486;28;20543;-52
2021/05/20 12:01:35;;;;;;;5.50;5.10;;;18.10;1.00;;;;;;5091650;28;20505;-55
2021/05/20 12:04:05;;;;;;;5.13;4.70;;;18.10;1.00;;;;;;5098964;28;20191;-55
2021/05/20 12:06:31;;;;;;;6.30;5.80;;;18.10;1.00;;;;;;5101544;28;20413;-55
2021/05/20 12:09:04;;;;;;;5.27;4.87;;;18.00;1.00;;;;;;5095310;28;20418;-51
2021/05/20 12:11:30;;;;;;;6.33;5.73;;;18.10;1.00;;;;;;5100670;28;20415;-52
2021/05/20 12:13:55;;;;;;;6.17;5.47;;;18.10;1.00;;;;;;5099412;28;20523;-54
2021/05/20 12:16:35;;;;;;;6.67;5.83;;;18.20;1.00;;;;;;5093537;28;20539;-54
2021/05/20 12:19:01;;;;;;;6.33;5.37;;;18.60;1.00;;;;;;5093285;28;20186;-53
2021/05/20 12:21:26;;;;;;;6.43;5.93;;;19.00;1.00;;;;;;5097858;28;20433;-52
2021/05/20 12:23:53;;;;;;;7.00;6.40;;;19.40;1.00;;;;;;5098902;28;20178;-60
2021/05/20 12:26:29;;;;;;;6.17;5.37;;;19.60;1.00;;;;;;5111278;28;20559;-53
2021/05/20 12:28:55;;;;;;;6.73;6.13;;;19.50;1.00;;;;;;5105300;28;20473;-55
2021/05/20 12:31:21;;;;;;;6.30;5.73;;;19.00;1.00;;;;;;5094511;28;20407;-56
2021/05/20 12:33:49;;;;;;;6.20;5.70;;;18.80;1.00;;;;;;5103754;28;20481;-56
2021/05/20 12:36:32;;;;;;;6.23;5.83;;;18.50;1.00;;;;;;5103702;28;20654;-53
2021/05/20 12:38:58;;;;;;;6.37;5.83;;;18.30;1.00;;;;;;5107335;28;20465;-53
2021/05/20 12:41:34;;;;;;;7.00;6.50;;;18.20;1.00;;;;;;5113254;28;20439;-53
2021/05/20 12:44:15;;;;;;;6.73;6.23;;;18.00;1.00;;;;;;5112113;28;20530;-52
2021/05/20 12:46:40;;;;;;;6.70;6.20;;;18.20;1.00;;;;;;5108723;28;20744;-52
2021/05/20 12:49:06;;;;;;;6.87;6.27;;;18.50;1.00;;;;;;5092762;28;20428;-54
2021/05/20 12:51:32;;;;;;;6.53;6.03;;;18.80;1.00;;;;;;5092994;28;20214;-53
2021/05/20 12:54:06;;;;;;;6.40;5.83;;;18.80;1.00;;;;;;5108793;28;20253;-56
2021/05/20 12:56:39;;;;;;;6.27;5.77;;;18.50;1.00;;;;;;5093849;28;20175;-53
2021/05/20 12:59:11;;;;;;;5.57;5.07;;;18.50;1.00;;;;;;5110324;28;20432;-57
2021/05/20 13:01:48;;;;;;;6.20;5.70;;;18.90;1.00;;;;;;5094606;28;20440;-55
2021/05/20 13:04:23;;;;;;;5.53;5.03;;;19.00;1.00;;;;;;5112837;28;20944;-55
2021/05/20 13:07:12;;;;;;;5.03;4.63;;;18.70;1.00;;;;;;5112808;28;20450;-51
2021/05/20 13:09:44;;;;;;;4.93;4.63;;;18.40;1.00;;;;;;5106446;28;20569;-52
2021/05/20 13:12:14;;;;;;;5.33;4.83;;;18.30;1.00;;;;;;5093122;28;20437;-52
2021/05/20 13:22:39;;;;;;;5.43;4.43;;;18.50;1.00;;;;;;5109164;28;20455;-54